sensor_id;sensor_type;location;lat;lon;timestamp;temperature;humidity
66506;HTU21D;53332;51.082;5.832;2024-03-08T00:02:23;5.23;117.52
66506;HTU21D;53332;51.082;5.832;2024-03-08T00:04:49;5.22;117.09
66506;HTU21D;53332;51.082;5.832;2024-03-08T00:07:14;5.18;117.28
66506;HTU21D;53332;51.082;5.832;2024-03-08T00:09:40;5.12;117.73
66506;HTU21D;53332;51.082;5.832;2024-03-08T00:12:06;5.11;117.58
66506;HTU21D;53332;51.082;5.832;2024-03-08T00:14:32;5.09;118.16
66506;HTU21D;53332;51.082;5.832;2024-03-08T00:16:58;5.07;118.05
66506;HTU21D;53332;51.082;5.832;2024-03-08T00:19:24;5.01;118.19
66506;HTU21D;53332;51.082;5.832;2024-03-08T00:21:49;5.01;118.68
66506;HTU21D;53332;51.082;5.832;2024-03-08T00:24:15;4.98;118.43
66506;HTU21D;53332;51.082;5.832;2024-03-08T00:26:41;4.90;118.99
66506;HTU21D;53332;51.082;5.832;2024-03-08T00:29:08;4.87;118.99
66506;HTU21D;53332;51.082;5.832;2024-03-08T00:31:34;4.84;118.99
66506;HTU21D;53332;51.082;5.832;2024-03-08T00:34:00;4.83;118.99
66506;HTU21D;53332;51.082;5.832;2024-03-08T00:36:26;4.83;118.99
66506;HTU21D;53332;51.082;5.832;2024-03-08T00:38:51;4.79;118.99
66506;HTU21D;53332;51.082;5.832;2024-03-08T00:41:17;4.80;118.99
66506;HTU21D;53332;51.082;5.832;2024-03-08T00:43:42;4.79;118.99
66506;HTU21D;53332;51.082;5.832;2024-03-08T00:46:08;4.76;118.99
66506;HTU21D;53332;51.082;5.832;2024-03-08T00:48:33;4.73;118.99
66506;HTU21D;53332;51.082;5.832;2024-03-08T00:50:59;4.71;118.99
66506;HTU21D;53332;51.082;5.832;2024-03-08T00:53:24;4.67;118.99
66506;HTU21D;53332;51.082;5.832;2024-03-08T00:55:50;4.63;118.99
66506;HTU21D;53332;51.082;5.832;2024-03-08T00:58:15;4.61;118.99
66506;HTU21D;53332;51.082;5.832;2024-03-08T01:00:41;4.59;118.99
66506;HTU21D;53332;51.082;5.832;2024-03-08T01:03:07;4.56;118.99
66506;HTU21D;53332;51.082;5.832;2024-03-08T01:05:33;4.51;118.99
66506;HTU21D;53332;51.082;5.832;2024-03-08T01:07:59;4.49;118.99
66506;HTU21D;53332;51.082;5.832;2024-03-08T01:10:24;4.48;118.99
66506;HTU21D;53332;51.082;5.832;2024-03-08T01:12:50;4.46;118.99
66506;HTU21D;53332;51.082;5.832;2024-03-08T01:15:16;4.44;118.99
66506;HTU21D;53332;51.082;5.832;2024-03-08T01:17:41;4.39;118.99
66506;HTU21D;53332;51.082;5.832;2024-03-08T01:20:09;4.39;118.99
66506;HTU21D;53332;51.082;5.832;2024-03-08T01:22:38;4.34;118.99
66506;HTU21D;53332;51.082;5.832;2024-03-08T01:25:04;4.31;118.99
66506;HTU21D;53332;51.082;5.832;2024-03-08T01:27:30;4.30;118.99
66506;HTU21D;53332;51.082;5.832;2024-03-08T01:29:56;4.28;118.99
66506;HTU21D;53332;51.082;5.832;2024-03-08T01:32:22;4.28;118.99
66506;HTU21D;53332;51.082;5.832;2024-03-08T01:34:49;4.27;118.99
66506;HTU21D;53332;51.082;5.832;2024-03-08T01:37:14;4.21;118.99
66506;HTU21D;53332;51.082;5.832;2024-03-08T01:39:40;4.22;118.99
66506;HTU21D;53332;51.082;5.832;2024-03-08T01:42:05;4.20;118.99
66506;HTU21D;53332;51.082;5.832;2024-03-08T01:44:31;4.18;118.99
66506;HTU21D;53332;51.082;5.832;2024-03-08T01:46:57;4.19;118.99
66506;HTU21D;53332;51.082;5.832;2024-03-08T01:49:25;4.14;118.99
66506;HTU21D;53332;51.082;5.832;2024-03-08T01:51:54;4.12;118.99
66506;HTU21D;53332;51.082;5.832;2024-03-08T01:54:22;4.12;118.99
66506;HTU21D;53332;51.082;5.832;2024-03-08T01:56:50;4.07;118.99
66506;HTU21D;53332;51.082;5.832;2024-03-08T01:59:15;4.03;118.99
66506;HTU21D;53332;51.082;5.832;2024-03-08T02:01:41;3.99;118.99
66506;HTU21D;53332;51.082;5.832;2024-03-08T02:04:07;4.01;118.99
66506;HTU21D;53332;51.082;5.832;2024-03-08T02:06:33;3.99;118.99
66506;HTU21D;53332;51.082;5.832;2024-03-08T02:08:59;3.89;118.99
66506;HTU21D;53332;51.082;5.832;2024-03-08T02:11:25;3.88;118.99
66506;HTU21D;53332;51.082;5.832;2024-03-08T02:13:51;3.87;118.99
66506;HTU21D;53332;51.082;5.832;2024-03-08T02:16:21;3.86;118.99
66506;HTU21D;53332;51.082;5.832;2024-03-08T02:18:47;3.87;118.99
66506;HTU21D;53332;51.082;5.832;2024-03-08T02:21:16;3.86;118.99
66506;HTU21D;53332;51.082;5.832;2024-03-08T02:23:43;3.89;118.99
66506;HTU21D;53332;51.082;5.832;2024-03-08T02:26:09;3.89;118.99
66506;HTU21D;53332;51.082;5.832;2024-03-08T02:28:34;3.87;118.99
66506;HTU21D;53332;51.082;5.832;2024-03-08T02:31:00;3.90;118.99
66506;HTU21D;53332;51.082;5.832;2024-03-08T02:33:28;3.92;118.99
66506;HTU21D;53332;51.082;5.832;2024-03-08T02:35:54;3.90;118.99
66506;HTU21D;53332;51.082;5.832;2024-03-08T02:38:22;3.93;118.99
66506;HTU21D;53332;51.082;5.832;2024-03-08T02:40:51;3.91;118.99
66506;HTU21D;53332;51.082;5.832;2024-03-08T02:43:19;3.95;118.99
66506;HTU21D;53332;51.082;5.832;2024-03-08T02:45:46;3.89;118.99
66506;HTU21D;53332;51.082;5.832;2024-03-08T02:48:13;3.92;118.99
66506;HTU21D;53332;51.082;5.832;2024-03-08T02:50:39;4.00;118.99
66506;HTU21D;53332;51.082;5.832;2024-03-08T02:53:06;3.98;118.99
66506;HTU21D;53332;51.082;5.832;2024-03-08T02:55:32;4.00;118.99
66506;HTU21D;53332;51.082;5.832;2024-03-08T02:58:01;3.98;118.99
66506;HTU21D;53332;51.082;5.832;2024-03-08T03:00:29;3.98;118.99
66506;HTU21D;53332;51.082;5.832;2024-03-08T03:02:56;4.01;118.99
66506;HTU21D;53332;51.082;5.832;2024-03-08T03:05:23;3.98;118.99
66506;HTU21D;53332;51.082;5.832;2024-03-08T03:07:50;4.00;118.99
66506;HTU21D;53332;51.082;5.832;2024-03-08T03:10:19;4.06;118.99
66506;HTU21D;53332;51.082;5.832;2024-03-08T03:12:46;4.00;118.99
66506;HTU21D;53332;51.082;5.832;2024-03-08T03:15:14;4.05;118.99
66506;HTU21D;53332;51.082;5.832;2024-03-08T03:17:49;3.93;118.99
66506;HTU21D;53332;51.082;5.832;2024-03-08T03:20:17;3.90;118.99
66506;HTU21D;53332;51.082;5.832;2024-03-08T03:22:51;3.97;118.99
66506;HTU21D;53332;51.082;5.832;2024-03-08T03:25:21;3.98;118.99
66506;HTU21D;53332;51.082;5.832;2024-03-08T03:27:59;4.03;118.99
66506;HTU21D;53332;51.082;5.832;2024-03-08T03:30:25;4.01;118.99
66506;HTU21D;53332;51.082;5.832;2024-03-08T03:33:02;3.94;118.99
66506;HTU21D;53332;51.082;5.832;2024-03-08T03:35:32;3.97;118.99
66506;HTU21D;53332;51.082;5.832;2024-03-08T03:37:58;3.95;118.99
66506;HTU21D;53332;51.082;5.832;2024-03-08T03:40:34;4.03;118.99
66506;HTU21D;53332;51.082;5.832;2024-03-08T03:43:00;3.98;118.99
66506;HTU21D;53332;51.082;5.832;2024-03-08T03:45:27;4.02;118.99
66506;HTU21D;53332;51.082;5.832;2024-03-08T03:47:53;3.94;118.99
66506;HTU21D;53332;51.082;5.832;2024-03-08T03:50:19;3.94;118.99
66506;HTU21D;53332;51.082;5.832;2024-03-08T03:52:48;3.92;118.99
66506;HTU21D;53332;51.082;5.832;2024-03-08T03:55:17;4.00;118.99
66506;HTU21D;53332;51.082;5.832;2024-03-08T03:57:43;3.94;118.99
66506;HTU21D;53332;51.082;5.832;2024-03-08T04:00:11;3.91;118.99
66506;HTU21D;53332;51.082;5.832;2024-03-08T04:02:40;3.94;118.99
66506;HTU21D;53332;51.082;5.832;2024-03-08T04:05:07;3.89;118.99
66506;HTU21D;53332;51.082;5.832;2024-03-08T04:07:33;3.86;118.99
66506;HTU21D;53332;51.082;5.832;2024-03-08T04:10:03;3.94;118.99
66506;HTU21D;53332;51.082;5.832;2024-03-08T04:12:29;3.88;118.99
66506;HTU21D;53332;51.082;5.832;2024-03-08T04:14:55;3.93;118.99
66506;HTU21D;53332;51.082;5.832;2024-03-08T04:17:22;3.91;118.99
66506;HTU21D;53332;51.082;5.832;2024-03-08T04:19:47;3.90;118.99
66506;HTU21D;53332;51.082;5.832;2024-03-08T04:22:15;3.86;118.99
66506;HTU21D;53332;51.082;5.832;2024-03-08T04:24:43;3.86;118.99
66506;HTU21D;53332;51.082;5.832;2024-03-08T04:27:09;3.86;118.99
66506;HTU21D;53332;51.082;5.832;2024-03-08T04:29:34;3.76;118.99
66506;HTU21D;53332;51.082;5.832;2024-03-08T04:32:03;3.80;118.99
66506;HTU21D;53332;51.082;5.832;2024-03-08T04:34:30;3.71;118.99
66506;HTU21D;53332;51.082;5.832;2024-03-08T04:36:59;3.73;118.99
66506;HTU21D;53332;51.082;5.832;2024-03-08T04:39:25;3.70;118.99
66506;HTU21D;53332;51.082;5.832;2024-03-08T04:41:55;3.64;118.99
66506;HTU21D;53332;51.082;5.832;2024-03-08T04:44:23;3.72;118.99
66506;HTU21D;53332;51.082;5.832;2024-03-08T04:46:50;3.71;118.99
66506;HTU21D;53332;51.082;5.832;2024-03-08T04:49:15;3.59;118.99
66506;HTU21D;53332;51.082;5.832;2024-03-08T04:51:41;3.63;118.99
66506;HTU21D;53332;51.082;5.832;2024-03-08T04:54:06;3.62;118.99
66506;HTU21D;53332;51.082;5.832;2024-03-08T04:56:32;3.63;118.99
66506;HTU21D;53332;51.082;5.832;2024-03-08T04:58:59;3.57;118.99
66506;HTU21D;53332;51.082;5.832;2024-03-08T05:01:24;3.55;118.99
66506;HTU21D;53332;51.082;5.832;2024-03-08T05:03:50;3.57;118.99
66506;HTU21D;53332;51.082;5.832;2024-03-08T05:06:17;3.52;118.99
66506;HTU21D;53332;51.082;5.832;2024-03-08T05:08:42;3.54;118.99
66506;HTU21D;53332;51.082;5.832;2024-03-08T05:11:08;3.49;118.99
66506;HTU21D;53332;51.082;5.832;2024-03-08T05:13:34;3.50;118.99
66506;HTU21D;53332;51.082;5.832;2024-03-08T05:16:00;3.54;118.99
66506;HTU21D;53332;51.082;5.832;2024-03-08T05:18:26;3.50;118.99
66506;HTU21D;53332;51.082;5.832;2024-03-08T05:20:53;3.46;118.99
66506;HTU21D;53332;51.082;5.832;2024-03-08T05:23:19;3.42;118.99
66506;HTU21D;53332;51.082;5.832;2024-03-08T05:25:45;3.43;118.99
66506;HTU21D;53332;51.082;5.832;2024-03-08T05:28:14;3.39;118.99
66506;HTU21D;53332;51.082;5.832;2024-03-08T05:30:39;3.38;118.99
66506;HTU21D;53332;51.082;5.832;2024-03-08T05:33:05;3.35;118.99
66506;HTU21D;53332;51.082;5.832;2024-03-08T05:35:30;3.35;118.99
66506;HTU21D;53332;51.082;5.832;2024-03-08T05:37:57;3.32;118.99
66506;HTU21D;53332;51.082;5.832;2024-03-08T05:40:23;3.30;118.99
66506;HTU21D;53332;51.082;5.832;2024-03-08T05:42:49;3.28;118.99
66506;HTU21D;53332;51.082;5.832;2024-03-08T05:45:15;3.31;118.99
66506;HTU21D;53332;51.082;5.832;2024-03-08T05:47:41;3.27;118.99
66506;HTU21D;53332;51.082;5.832;2024-03-08T05:50:07;3.33;118.99
66506;HTU21D;53332;51.082;5.832;2024-03-08T05:52:36;3.29;118.99
66506;HTU21D;53332;51.082;5.832;2024-03-08T05:55:03;3.23;118.99
66506;HTU21D;53332;51.082;5.832;2024-03-08T05:57:32;3.21;118.99
66506;HTU21D;53332;51.082;5.832;2024-03-08T05:59:57;3.18;118.99
66506;HTU21D;53332;51.082;5.832;2024-03-08T06:02:23;3.20;118.99
66506;HTU21D;53332;51.082;5.832;2024-03-08T06:04:48;3.10;118.99
66506;HTU21D;53332;51.082;5.832;2024-03-08T06:07:15;3.12;118.99
66506;HTU21D;53332;51.082;5.832;2024-03-08T06:09:40;3.12;118.99
66506;HTU21D;53332;51.082;5.832;2024-03-08T06:12:06;3.08;118.99
66506;HTU21D;53332;51.082;5.832;2024-03-08T06:14:32;3.09;118.99
66506;HTU21D;53332;51.082;5.832;2024-03-08T06:16:57;3.10;118.99
66506;HTU21D;53332;51.082;5.832;2024-03-08T06:19:23;3.09;118.99
66506;HTU21D;53332;51.082;5.832;2024-03-08T06:21:48;3.12;118.99
66506;HTU21D;53332;51.082;5.832;2024-03-08T06:24:14;3.12;118.99
66506;HTU21D;53332;51.082;5.832;2024-03-08T06:26:40;3.21;118.99
66506;HTU21D;53332;51.082;5.832;2024-03-08T06:29:06;3.16;118.99
66506;HTU21D;53332;51.082;5.832;2024-03-08T06:31:32;3.19;118.99
66506;HTU21D;53332;51.082;5.832;2024-03-08T06:33:58;3.18;118.99
66506;HTU21D;53332;51.082;5.832;2024-03-08T06:36:23;3.24;118.99
66506;HTU21D;53332;51.082;5.832;2024-03-08T06:38:49;3.26;118.99
66506;HTU21D;53332;51.082;5.832;2024-03-08T06:41:15;3.33;118.99
66506;HTU21D;53332;51.082;5.832;2024-03-08T06:43:46;3.35;118.99
66506;HTU21D;53332;51.082;5.832;2024-03-08T06:46:12;3.43;118.99
66506;HTU21D;53332;51.082;5.832;2024-03-08T06:48:40;3.42;118.99
66506;HTU21D;53332;51.082;5.832;2024-03-08T06:51:05;3.56;118.99
66506;HTU21D;53332;51.082;5.832;2024-03-08T06:53:31;3.59;118.99
66506;HTU21D;53332;51.082;5.832;2024-03-08T06:55:58;3.67;118.99
66506;HTU21D;53332;51.082;5.832;2024-03-08T06:58:24;3.72;118.99
66506;HTU21D;53332;51.082;5.832;2024-03-08T07:00:50;3.77;118.99
66506;HTU21D;53332;51.082;5.832;2024-03-08T07:03:19;3.83;118.99
66506;HTU21D;53332;51.082;5.832;2024-03-08T07:05:44;3.92;118.99
66506;HTU21D;53332;51.082;5.832;2024-03-08T07:08:10;4.02;118.99
66506;HTU21D;53332;51.082;5.832;2024-03-08T07:10:38;4.07;118.99
66506;HTU21D;53332;51.082;5.832;2024-03-08T07:13:04;4.05;118.99
66506;HTU21D;53332;51.082;5.832;2024-03-08T07:15:29;4.14;118.99
66506;HTU21D;53332;51.082;5.832;2024-03-08T07:17:55;4.22;118.99
66506;HTU21D;53332;51.082;5.832;2024-03-08T07:20:21;4.37;118.99
66506;HTU21D;53332;51.082;5.832;2024-03-08T07:22:48;4.41;118.99
66506;HTU21D;53332;51.082;5.832;2024-03-08T07:25:16;4.59;117.05
66506;HTU21D;53332;51.082;5.832;2024-03-08T07:27:53;4.59;115.53
66506;HTU21D;53332;51.082;5.832;2024-03-08T07:30:23;4.73;118.99
66506;HTU21D;53332;51.082;5.832;2024-03-08T07:33:08;4.88;117.85
66506;HTU21D;53332;51.082;5.832;2024-03-08T07:35:40;4.98;115.28
66506;HTU21D;53332;51.082;5.832;2024-03-08T07:38:09;5.09;114.25
66506;HTU21D;53332;51.082;5.832;2024-03-08T07:40:39;5.15;115.48
66506;HTU21D;53332;51.082;5.832;2024-03-08T07:43:10;5.26;112.79
66506;HTU21D;53332;51.082;5.832;2024-03-08T07:45:39;5.41;115.14
66506;HTU21D;53332;51.082;5.832;2024-03-08T07:48:06;5.43;112.69
66506;HTU21D;53332;51.082;5.832;2024-03-08T07:50:40;5.52;115.67
66506;HTU21D;53332;51.082;5.832;2024-03-08T07:53:06;5.66;114.93
66506;HTU21D;53332;51.082;5.832;2024-03-08T07:55:33;5.71;112.63
66506;HTU21D;53332;51.082;5.832;2024-03-08T07:58:00;5.84;112.17
66506;HTU21D;53332;51.082;5.832;2024-03-08T08:00:26;5.86;110.92
66506;HTU21D;53332;51.082;5.832;2024-03-08T08:02:55;5.92;111.52
66506;HTU21D;53332;51.082;5.832;2024-03-08T08:05:21;5.93;109.32
66506;HTU21D;53332;51.082;5.832;2024-03-08T08:07:47;5.99;109.75
66506;HTU21D;53332;51.082;5.832;2024-03-08T08:10:13;6.00;112.33
66506;HTU21D;53332;51.082;5.832;2024-03-08T08:12:50;5.94;110.17
66506;HTU21D;53332;51.082;5.832;2024-03-08T08:15:17;5.94;109.88
66506;HTU21D;53332;51.082;5.832;2024-03-08T08:17:46;5.96;114.90
66506;HTU21D;53332;51.082;5.832;2024-03-08T08:20:13;6.04;113.25
66506;HTU21D;53332;51.082;5.832;2024-03-08T08:22:39;6.12;110.39
66506;HTU21D;53332;51.082;5.832;2024-03-08T08:25:11;6.09;107.96
66506;HTU21D;53332;51.082;5.832;2024-03-08T08:27:46;6.15;110.35
66506;HTU21D;53332;51.082;5.832;2024-03-08T08:30:12;6.11;111.72
66506;HTU21D;53332;51.082;5.832;2024-03-08T08:32:38;6.26;109.97
66506;HTU21D;53332;51.082;5.832;2024-03-08T08:35:10;6.28;108.45
66506;HTU21D;53332;51.082;5.832;2024-03-08T08:37:41;6.26;109.83
66506;HTU21D;53332;51.082;5.832;2024-03-08T08:40:07;6.40;110.57
66506;HTU21D;53332;51.082;5.832;2024-03-08T08:42:40;6.45;108.78
66506;HTU21D;53332;51.082;5.832;2024-03-08T08:45:07;6.44;108.43
66506;HTU21D;53332;51.082;5.832;2024-03-08T08:47:36;6.52;108.41
66506;HTU21D;53332;51.082;5.832;2024-03-08T08:50:03;6.63;105.63
66506;HTU21D;53332;51.082;5.832;2024-03-08T08:52:31;6.45;110.40
66506;HTU21D;53332;51.082;5.832;2024-03-08T08:54:57;6.59;108.89
66506;HTU21D;53332;51.082;5.832;2024-03-08T08:57:22;6.67;110.83
66506;HTU21D;53332;51.082;5.832;2024-03-08T08:59:48;6.86;108.56
66506;HTU21D;53332;51.082;5.832;2024-03-08T09:02:13;6.88;105.84
66506;HTU21D;53332;51.082;5.832;2024-03-08T09:04:39;6.83;107.49
66506;HTU21D;53332;51.082;5.832;2024-03-08T09:07:05;6.96;105.94
66506;HTU21D;53332;51.082;5.832;2024-03-08T09:09:33;6.94;107.62
66506;HTU21D;53332;51.082;5.832;2024-03-08T09:12:00;7.08;107.07
66506;HTU21D;53332;51.082;5.832;2024-03-08T09:14:26;7.11;103.47
66506;HTU21D;53332;51.082;5.832;2024-03-08T09:16:52;7.18;102.14
66506;HTU21D;53332;51.082;5.832;2024-03-08T09:19:18;7.12;109.50
66506;HTU21D;53332;51.082;5.832;2024-03-08T09:21:45;7.15;105.23
66506;HTU21D;53332;51.082;5.832;2024-03-08T09:24:10;7.29;104.29
66506;HTU21D;53332;51.082;5.832;2024-03-08T09:26:36;7.35;104.34
66506;HTU21D;53332;51.082;5.832;2024-03-08T09:29:02;7.28;107.41
66506;HTU21D;53332;51.082;5.832;2024-03-08T09:31:28;7.38;106.74
66506;HTU21D;53332;51.082;5.832;2024-03-08T09:33:53;7.42;108.34
66506;HTU21D;53332;51.082;5.832;2024-03-08T09:36:19;7.52;108.44
66506;HTU21D;53332;51.082;5.832;2024-03-08T09:38:45;7.57;110.29
66506;HTU21D;53332;51.082;5.832;2024-03-08T09:41:11;7.67;102.25
66506;HTU21D;53332;51.082;5.832;2024-03-08T09:43:36;7.58;108.91
66506;HTU21D;53332;51.082;5.832;2024-03-08T09:46:04;7.50;105.92
66506;HTU21D;53332;51.082;5.832;2024-03-08T09:48:32;7.62;107.95
66506;HTU21D;53332;51.082;5.832;2024-03-08T09:50:58;7.61;104.23
66506;HTU21D;53332;51.082;5.832;2024-03-08T09:53:23;7.71;110.81
66506;HTU21D;53332;51.082;5.832;2024-03-08T09:55:49;7.79;104.50
66506;HTU21D;53332;51.082;5.832;2024-03-08T09:58:16;7.71;107.92
66506;HTU21D;53332;51.082;5.832;2024-03-08T10:00:56;7.87;102.13
66506;HTU21D;53332;51.082;5.832;2024-03-08T10:03:28;7.74;102.76
66506;HTU21D;53332;51.082;5.832;2024-03-08T10:05:57;7.90;102.25
66506;HTU21D;53332;51.082;5.832;2024-03-08T10:08:28;7.93;104.01
66506;HTU21D;53332;51.082;5.832;2024-03-08T10:10:56;7.96;99.90
66506;HTU21D;53332;51.082;5.832;2024-03-08T10:13:25;7.85;100.12
66506;HTU21D;53332;51.082;5.832;2024-03-08T10:15:53;7.81;105.46
66506;HTU21D;53332;51.082;5.832;2024-03-08T10:18:19;7.99;102.99
66506;HTU21D;53332;51.082;5.832;2024-03-08T10:20:45;8.08;101.04
66506;HTU21D;53332;51.082;5.832;2024-03-08T10:23:10;8.09;100.92
66506;HTU21D;53332;51.082;5.832;2024-03-08T10:25:36;8.19;97.84
66506;HTU21D;53332;51.082;5.832;2024-03-08T10:28:05;8.18;101.38
66506;HTU21D;53332;51.082;5.832;2024-03-08T10:30:31;8.28;98.89
66506;HTU21D;53332;51.082;5.832;2024-03-08T10:32:58;8.30;95.14
66506;HTU21D;53332;51.082;5.832;2024-03-08T10:35:24;8.21;95.55
66506;HTU21D;53332;51.082;5.832;2024-03-08T10:37:51;8.15;97.16
66506;HTU21D;53332;51.082;5.832;2024-03-08T10:40:25;8.11;99.94
66506;HTU21D;53332;51.082;5.832;2024-03-08T10:42:56;8.21;98.87
66506;HTU21D;53332;51.082;5.832;2024-03-08T10:45:37;8.21;102.43
66506;HTU21D;53332;51.082;5.832;2024-03-08T10:50:50;8.42;95.93
66506;HTU21D;53332;51.082;5.832;2024-03-08T10:53:18;8.50;96.44
66506;HTU21D;53332;51.082;5.832;2024-03-08T10:55:46;8.42;108.46
66506;HTU21D;53332;51.082;5.832;2024-03-08T10:58:12;8.64;99.83
66506;HTU21D;53332;51.082;5.832;2024-03-08T11:00:38;8.78;96.28
66506;HTU21D;53332;51.082;5.832;2024-03-08T11:03:04;8.96;93.97
66506;HTU21D;53332;51.082;5.832;2024-03-08T11:08:18;8.80;97.53
66506;HTU21D;53332;51.082;5.832;2024-03-08T11:10:51;8.83;89.06
66506;HTU21D;53332;51.082;5.832;2024-03-08T11:13:41;8.89;89.21
66506;HTU21D;53332;51.082;5.832;2024-03-08T11:19:05;9.12;93.62
66506;HTU21D;53332;51.082;5.832;2024-03-08T11:21:32;9.18;88.81
66506;HTU21D;53332;51.082;5.832;2024-03-08T11:24:12;9.21;94.11
66506;HTU21D;53332;51.082;5.832;2024-03-08T11:26:39;9.30;86.43
66506;HTU21D;53332;51.082;5.832;2024-03-08T11:31:52;9.22;89.57
66506;HTU21D;53332;51.082;5.832;2024-03-08T11:34:19;9.26;88.76
66506;HTU21D;53332;51.082;5.832;2024-03-08T11:36:48;9.37;87.15
66506;HTU21D;53332;51.082;5.832;2024-03-08T11:39:13;9.45;83.66
66506;HTU21D;53332;51.082;5.832;2024-03-08T11:41:40;9.50;81.30
66506;HTU21D;53332;51.082;5.832;2024-03-08T11:44:07;9.53;87.79
66506;HTU21D;53332;51.082;5.832;2024-03-08T11:46:34;9.57;87.33
66506;HTU21D;53332;51.082;5.832;2024-03-08T11:49:00;9.70;81.34
66506;HTU21D;53332;51.082;5.832;2024-03-08T11:51:27;9.86;87.16
66506;HTU21D;53332;51.082;5.832;2024-03-08T11:53:53;9.79;79.17
66506;HTU21D;53332;51.082;5.832;2024-03-08T11:56:18;9.86;80.06
66506;HTU21D;53332;51.082;5.832;2024-03-08T11:58:54;9.92;80.69
66506;HTU21D;53332;51.082;5.832;2024-03-08T12:01:23;9.90;87.15
66506;HTU21D;53332;51.082;5.832;2024-03-08T12:03:56;10.08;80.08
66506;HTU21D;53332;51.082;5.832;2024-03-08T12:06:37;9.93;81.75
66506;HTU21D;53332;51.082;5.832;2024-03-08T12:09:12;10.05;81.23
66506;HTU21D;53332;51.082;5.832;2024-03-08T12:11:39;10.03;83.39
66506;HTU21D;53332;51.082;5.832;2024-03-08T12:14:04;10.10;77.88
66506;HTU21D;53332;51.082;5.832;2024-03-08T12:16:32;10.07;80.26
66506;HTU21D;53332;51.082;5.832;2024-03-08T12:18:58;10.10;84.78
66506;HTU21D;53332;51.082;5.832;2024-03-08T12:21:26;10.20;77.69
66506;HTU21D;53332;51.082;5.832;2024-03-08T12:24:11;10.30;78.91
66506;HTU21D;53332;51.082;5.832;2024-03-08T12:26:39;10.40;76.57
66506;HTU21D;53332;51.082;5.832;2024-03-08T12:29:25;10.52;72.73
66506;HTU21D;53332;51.082;5.832;2024-03-08T12:32:02;10.36;77.92
66506;HTU21D;53332;51.082;5.832;2024-03-08T12:34:30;10.28;75.82
66506;HTU21D;53332;51.082;5.832;2024-03-08T12:36:57;10.35;78.71
66506;HTU21D;53332;51.082;5.832;2024-03-08T12:39:24;10.30;75.91
66506;HTU21D;53332;51.082;5.832;2024-03-08T12:41:56;10.48;77.82
66506;HTU21D;53332;51.082;5.832;2024-03-08T12:44:25;10.64;74.56
66506;HTU21D;53332;51.082;5.832;2024-03-08T12:46:51;10.54;72.39
66506;HTU21D;53332;51.082;5.832;2024-03-08T12:49:19;10.67;75.92
66506;HTU21D;53332;51.082;5.832;2024-03-08T12:51:48;10.72;76.12
66506;HTU21D;53332;51.082;5.832;2024-03-08T12:54:13;10.64;73.92
66506;HTU21D;53332;51.082;5.832;2024-03-08T12:56:39;10.64;76.80
66506;HTU21D;53332;51.082;5.832;2024-03-08T12:59:09;10.77;74.45
66506;HTU21D;53332;51.082;5.832;2024-03-08T13:01:35;10.82;76.50
66506;HTU21D;53332;51.082;5.832;2024-03-08T13:04:04;10.83;74.86
66506;HTU21D;53332;51.082;5.832;2024-03-08T13:06:31;10.95;75.66
66506;HTU21D;53332;51.082;5.832;2024-03-08T13:08:58;10.82;72.70
66506;HTU21D;53332;51.082;5.832;2024-03-08T13:11:24;10.93;74.30
66506;HTU21D;53332;51.082;5.832;2024-03-08T13:13:51;10.94;73.58
66506;HTU21D;53332;51.082;5.832;2024-03-08T13:16:18;10.99;73.61
66506;HTU21D;53332;51.082;5.832;2024-03-08T13:18:48;11.02;75.10
66506;HTU21D;53332;51.082;5.832;2024-03-08T13:21:14;11.03;72.98
66506;HTU21D;53332;51.082;5.832;2024-03-08T13:23:41;11.02;72.75
66506;HTU21D;53332;51.082;5.832;2024-03-08T13:26:12;11.08;71.38
66506;HTU21D;53332;51.082;5.832;2024-03-08T13:28:49;11.09;75.37
66506;HTU21D;53332;51.082;5.832;2024-03-08T13:31:19;10.97;71.87
66506;HTU21D;53332;51.082;5.832;2024-03-08T13:33:45;11.04;69.65
66506;HTU21D;53332;51.082;5.832;2024-03-08T13:36:12;11.20;70.97
66506;HTU21D;53332;51.082;5.832;2024-03-08T13:38:48;11.27;71.10
66506;HTU21D;53332;51.082;5.832;2024-03-08T13:41:15;11.17;76.60
66506;HTU21D;53332;51.082;5.832;2024-03-08T13:43:46;11.15;72.16
66506;HTU21D;53332;51.082;5.832;2024-03-08T13:46:15;11.29;73.64
66506;HTU21D;53332;51.082;5.832;2024-03-08T13:48:40;11.33;77.66
66506;HTU21D;53332;51.082;5.832;2024-03-08T13:51:07;11.60;73.99
66506;HTU21D;53332;51.082;5.832;2024-03-08T13:53:33;11.45;73.45
66506;HTU21D;53332;51.082;5.832;2024-03-08T13:56:03;11.41;76.02
66506;HTU21D;53332;51.082;5.832;2024-03-08T13:58:30;11.43;74.53
66506;HTU21D;53332;51.082;5.832;2024-03-08T14:00:55;11.53;72.35
66506;HTU21D;53332;51.082;5.832;2024-03-08T14:03:22;11.54;77.22
66506;HTU21D;53332;51.082;5.832;2024-03-08T14:05:49;11.62;71.61
66506;HTU21D;53332;51.082;5.832;2024-03-08T14:08:15;11.49;80.53
66506;HTU21D;53332;51.082;5.832;2024-03-08T14:10:41;11.56;75.52
66506;HTU21D;53332;51.082;5.832;2024-03-08T14:13:07;11.58;74.34
66506;HTU21D;53332;51.082;5.832;2024-03-08T14:15:34;11.51;75.70
66506;HTU21D;53332;51.082;5.832;2024-03-08T14:18:00;11.51;76.37
66506;HTU21D;53332;51.082;5.832;2024-03-08T14:20:27;11.63;69.70
66506;HTU21D;53332;51.082;5.832;2024-03-08T14:22:56;11.58;73.86
66506;HTU21D;53332;51.082;5.832;2024-03-08T14:25:24;11.77;71.29
66506;HTU21D;53332;51.082;5.832;2024-03-08T14:27:51;11.62;73.16
66506;HTU21D;53332;51.082;5.832;2024-03-08T14:30:20;11.55;78.10
66506;HTU21D;53332;51.082;5.832;2024-03-08T14:33:00;11.74;74.11
66506;HTU21D;53332;51.082;5.832;2024-03-08T14:35:26;11.73;76.02
66506;HTU21D;53332;51.082;5.832;2024-03-08T14:37:52;11.74;75.09
66506;HTU21D;53332;51.082;5.832;2024-03-08T14:40:18;11.84;73.54
66506;HTU21D;53332;51.082;5.832;2024-03-08T14:42:48;11.78;69.34
66506;HTU21D;53332;51.082;5.832;2024-03-08T14:45:15;11.96;71.72
66506;HTU21D;53332;51.082;5.832;2024-03-08T14:47:41;11.85;70.86
66506;HTU21D;53332;51.082;5.832;2024-03-08T14:50:08;11.84;70.52
66506;HTU21D;53332;51.082;5.832;2024-03-08T14:52:35;11.77;69.41
66506;HTU21D;53332;51.082;5.832;2024-03-08T14:55:01;11.75;69.16
66506;HTU21D;53332;51.082;5.832;2024-03-08T14:57:32;11.70;71.22
66506;HTU21D;53332;51.082;5.832;2024-03-08T14:59:58;11.74;68.28
66506;HTU21D;53332;51.082;5.832;2024-03-08T15:02:32;11.71;71.55
66506;HTU21D;53332;51.082;5.832;2024-03-08T15:05:02;11.77;72.26
66506;HTU21D;53332;51.082;5.832;2024-03-08T15:07:34;11.90;70.29
66506;HTU21D;53332;51.082;5.832;2024-03-08T15:10:00;11.88;71.42
66506;HTU21D;53332;51.082;5.832;2024-03-08T15:12:25;11.90;68.81
66506;HTU21D;53332;51.082;5.832;2024-03-08T15:14:52;11.76;70.02
66506;HTU21D;53332;51.082;5.832;2024-03-08T15:17:18;11.72;71.30
66506;HTU21D;53332;51.082;5.832;2024-03-08T15:19:49;11.82;68.78
66506;HTU21D;53332;51.082;5.832;2024-03-08T15:22:15;11.85;70.56
66506;HTU21D;53332;51.082;5.832;2024-03-08T15:24:44;11.94;68.52
66506;HTU21D;53332;51.082;5.832;2024-03-08T15:27:09;11.79;68.18
66506;HTU21D;53332;51.082;5.832;2024-03-08T15:29:35;11.81;64.82
66506;HTU21D;53332;51.082;5.832;2024-03-08T15:32:02;11.75;67.46